Nicolas A — TCNT4 — position and weather

sailwx.info

Track history (hours):
 
Tides and Currents Weather Stations Pressure Air Temp Water Temp Dewpoint Dewpoint Depression Visibility Wind Speed Wind Dir Waves Ship Positions

Nicolas A

Last reported at 2018-Jul-20 09:53 UTC. Time now 2018-Jul-23 04:14 UTC.
Position N 39°41' E 023°56'.

Length 133 m; draft 6.6 m.

Type: Cargo ship. MMSI: 271043704.

Date/timePositionNaut miles runAvg speedWind from/ knotsBaromVisibWave heightAir tempDewpointWater temp
2018-Jul-20 09:53N 39°41' E 023°56'513.4
2018-Jul-20 09:30N 39°40' E 024°02'813.3
2018-Jul-20 08:56N 39°37' E 024°11'12312.1
2018-Jul-19 22:50N 37°54' E 025°35'412.1
2018-Jul-19 22:30N 37°50' E 025°38'612.7
2018-Jul-19 22:00N 37°44' E 025°41'612.7
2018-Jul-19 21:30N 37°39' E 025°45'712.7
2018-Jul-19 20:59N 37°33' E 025°49'612.5
2018-Jul-19 20:31N 37°28' E 025°52'  
2018-Jul-15 16:00N 35°40' E 024°34'612.3
2018-Jul-15 15:29N 35°41' E 024°26'612.7
2018-Jul-15 15:00N 35°42' E 024°19'1312.6
2018-Jul-15 13:58N 35°44' E 024°03'45212.9
2018-Jul-14 02:59N 36°35' E 014°47'714.3
2018-Jul-14 02:30N 36°36' E 014°38'714.1
2018-Jul-14 02:00N 36°39' E 014°30'714.0
2018-Jul-14 01:29N 36°42' E 014°22'713.9
2018-Jul-14 01:00N 36°45' E 014°14'713.6
2018-Jul-14 00:28N 36°48' E 014°06'713.3
2018-Jul-13 23:59N 36°50' E 013°59'613.1
2018-Jul-13 23:30N 36°53' E 013°51'612.7
2018-Jul-13 23:00N 36°55' E 013°44'612.7
2018-Jul-13 22:30N 36°58' E 013°37'612.9
2018-Jul-13 22:00N 37°01' E 013°30'713.1
2018-Jul-13 21:30N 37°04' E 013°22'713.0
2018-Jul-13 21:00N 37°07' E 013°15'612.9
2018-Jul-13 20:30N 37°09' E 013°07'10212.6
2018-Jul-13 12:23N 37°40' E 011°05'512.4
2018-Jul-13 12:00N 37°41' E 010°59'9113.2
2018-Jul-13 05:04N 38°00' E 009°06'113.0
2018-Jul-13 04:59N 38°01' E 009°05'613.0
2018-Jul-13 04:30N 38°02' E 008°57'612.8
2018-Jul-13 04:00N 38°03' E 008°49'2412.7
2018-Jul-13 02:04N 38°08' E 008°19'212.9
2018-Jul-13 01:57N 38°08' E 008°17'1013.0
2018-Jul-13 01:13N 38°10' E 008°05'413.1
2018-Jul-13 00:55N 38°11' E 007°60'713.0
2018-Jul-13 00:23N 38°12' E 007°51'712.8
2018-Jul-12 23:51N 38°13' E 007°42'612.7
2018-Jul-12 23:25N 38°14' E 007°35'512.6
2018-Jul-12 23:00N 38°15' E 007°29'612.6
2018-Jul-12 22:30N 38°16' E 007°21'612.6
2018-Jul-12 22:00N 38°18' E 007°13'4212.8
2018-Jul-12 18:43N 38°28' E 006°21'312.9
2018-Jul-12 18:30N 38°28' E 006°18'8712.8
2018-Jul-12 11:44N 38°48' E 004°29'313.0
2018-Jul-12 11:29N 38°48' E 004°25'1412.9
2018-Jul-12 10:26N 38°51' E 004°08'512.7
2018-Jul-12 10:00N 38°52' E 004°01'612.9
2018-Jul-12 09:30N 38°53' E 003°53'612.8
2018-Jul-12 09:00N 38°54' E 003°45'612.4
2018-Jul-12 08:30N 38°55' E 003°37'612.2
2018-Jul-12 08:00N 38°57' E 003°29'1612.3
2018-Jul-12 06:41N 38°60' E 003°09'212.4
2018-Jul-12 06:30N 39°00' E 003°06'612.5
2018-Jul-12 06:00N 39°01' E 002°58'912.6
2018-Jul-12 05:17N 39°03' E 002°47'412.5
2018-Jul-12 05:00N 39°04' E 002°42'812.4
2018-Jul-12 04:22N 39°05' E 002°32'12812.7
2018-Jul-11 18:15N 39°25' W 000°11'312.3
2018-Jul-11 18:00N 39°25' W 000°15'4 7.6
2018-Jul-11 17:30N 39°27' W 000°19'0 0.5
2018-Jul-11 16:58N 39°27' W 000°19'0 0.0
2018-Jul-11 16:28N 39°27' W 000°19'0 0.0
2018-Jul-11 15:58N 39°27' W 000°19'0 0.0
2018-Jul-11 15:28N 39°27' W 000°19'0 0.0
2018-Jul-11 14:58N 39°27' W 000°19'0 0.0
2018-Jul-11 14:28N 39°27' W 000°19'0 0.0
2018-Jul-11 13:58N 39°27' W 000°19'0 0.0
2018-Jul-11 13:28N 39°27' W 000°19'0 0.0
2018-Jul-11 12:58N 39°27' W 000°19'0 0.0
2018-Jul-11 12:28N 39°27' W 000°19'0 0.0
2018-Jul-11 11:58N 39°27' W 000°19'0 0.0
2018-Jul-11 11:28N 39°27' W 000°19'0 0.0
2018-Jul-11 10:58N 39°27' W 000°19'0 0.0
2018-Jul-11 10:28N 39°27' W 000°19'0 0.0
2018-Jul-11 09:58N 39°27' W 000°19'0 0.0
2018-Jul-11 09:28N 39°27' W 000°19'0 0.0
2018-Jul-11 08:58N 39°27' W 000°19'0 0.0
2018-Jul-11 08:28N 39°27' W 000°19'0 0.0
2018-Jul-11 07:58N 39°27' W 000°19'0 0.0
2018-Jul-11 07:28N 39°27' W 000°19'0 0.0
2018-Jul-11 06:58N 39°27' W 000°19'0 0.0
2018-Jul-11 06:28N 39°27' W 000°19'0 0.0
2018-Jul-11 05:58N 39°27' W 000°19'0 0.0
2018-Jul-11 05:28N 39°27' W 000°19'0 0.0
2018-Jul-11 04:58N 39°27' W 000°19'0 0.0
2018-Jul-11 04:28N 39°27' W 000°19'0 0.0
2018-Jul-11 03:58N 39°27' W 000°19'0 0.0
2018-Jul-11 03:28N 39°27' W 000°19'0 0.0
2018-Jul-11 02:58N 39°27' W 000°19'0 0.0
2018-Jul-11 02:28N 39°27' W 000°19'0 0.0
2018-Jul-11 01:58N 39°27' W 000°19'0 0.0
2018-Jul-11 01:28N 39°27' W 000°19'0 0.0
2018-Jul-11 00:58N 39°27' W 000°19'0 0.0
2018-Jul-11 00:28N 39°27' W 000°19'0 0.0
2018-Jul-10 23:58N 39°27' W 000°19'0 0.0
2018-Jul-10 23:28N 39°27' W 000°19'0 0.0
2018-Jul-10 22:58N 39°27' W 000°19'0 0.0
2018-Jul-10 22:28N 39°27' W 000°19'0 0.0
2018-Jul-10 21:25N 39°27' W 000°19'0 0.0
2018-Jul-10 20:55N 39°27' W 000°19'0 0.0
2018-Jul-10 20:28N 39°27' W 000°19'0 0.0
2018-Jul-10 19:55N 39°27' W 000°19'0 0.0
2018-Jul-10 19:25N 39°27' W 000°19'0 0.0
2018-Jul-10 18:55N 39°27' W 000°19'0 0.0
2018-Jul-10 18:28N 39°27' W 000°19'0 0.0
2018-Jul-10 17:58N 39°27' W 000°19'0 0.0
2018-Jul-10 17:28N 39°27' W 000°19'0 0.0
2018-Jul-10 16:58N 39°27' W 000°19'0 0.0
2018-Jul-10 16:28N 39°27' W 000°19'0 0.0
2018-Jul-10 15:58N 39°27' W 000°19'0 0.0
2018-Jul-10 15:28N 39°27' W 000°19'0 0.0
2018-Jul-10 14:58N 39°27' W 000°19'0 0.0
2018-Jul-10 14:28N 39°27' W 000°19'1 1.2
2018-Jul-10 14:00N 39°27' W 000°19'  
Track history (hours):
 
Tides and Currents Weather Stations Pressure Air Temp Water Temp Dewpoint Dewpoint Depression Visibility Wind Speed Wind Dir Waves Ship Positions

Nicolas A

Last reported at 2018-Jul-20 09:53 UTC. Time now 2018-Jul-23 04:14 UTC.
Position N 39°41' E 023°56'.

Length 133 m; draft 6.6 m.

Type: Cargo ship. MMSI: 271043704.

Date/timePositionNaut miles runAvg speedWind from/ knotsBaromVisibWave heightAir tempDewpointWater temp
2018-Jul-20 09:53N 39°41' E 023°56'513.4
2018-Jul-20 09:30N 39°40' E 024°02'813.3
2018-Jul-20 08:56N 39°37' E 024°11'12312.1
2018-Jul-19 22:50N 37°54' E 025°35'412.1
2018-Jul-19 22:30N 37°50' E 025°38'612.7
2018-Jul-19 22:00N 37°44' E 025°41'612.7
2018-Jul-19 21:30N 37°39' E 025°45'712.7
2018-Jul-19 20:59N 37°33' E 025°49'612.5
2018-Jul-19 20:31N 37°28' E 025°52'  
2018-Jul-15 16:00N 35°40' E 024°34'612.3
2018-Jul-15 15:29N 35°41' E 024°26'612.7
2018-Jul-15 15:00N 35°42' E 024°19'1312.6
2018-Jul-15 13:58N 35°44' E 024°03'45212.9
2018-Jul-14 02:59N 36°35' E 014°47'714.3
2018-Jul-14 02:30N 36°36' E 014°38'714.1
2018-Jul-14 02:00N 36°39' E 014°30'714.0
2018-Jul-14 01:29N 36°42' E 014°22'713.9
2018-Jul-14 01:00N 36°45' E 014°14'713.6
2018-Jul-14 00:28N 36°48' E 014°06'713.3
2018-Jul-13 23:59N 36°50' E 013°59'613.1
2018-Jul-13 23:30N 36°53' E 013°51'612.7
2018-Jul-13 23:00N 36°55' E 013°44'612.7
2018-Jul-13 22:30N 36°58' E 013°37'612.9
2018-Jul-13 22:00N 37°01' E 013°30'713.1
2018-Jul-13 21:30N 37°04' E 013°22'713.0
2018-Jul-13 21:00N 37°07' E 013°15'612.9
2018-Jul-13 20:30N 37°09' E 013°07'10212.6
2018-Jul-13 12:23N 37°40' E 011°05'512.4
2018-Jul-13 12:00N 37°41' E 010°59'9113.2
2018-Jul-13 05:04N 38°00' E 009°06'113.0
2018-Jul-13 04:59N 38°01' E 009°05'613.0
2018-Jul-13 04:30N 38°02' E 008°57'612.8
2018-Jul-13 04:00N 38°03' E 008°49'2412.7
2018-Jul-13 02:04N 38°08' E 008°19'212.9
2018-Jul-13 01:57N 38°08' E 008°17'1013.0
2018-Jul-13 01:13N 38°10' E 008°05'413.1
2018-Jul-13 00:55N 38°11' E 007°60'713.0
2018-Jul-13 00:23N 38°12' E 007°51'712.8
2018-Jul-12 23:51N 38°13' E 007°42'612.7
2018-Jul-12 23:25N 38°14' E 007°35'512.6
2018-Jul-12 23:00N 38°15' E 007°29'612.6
2018-Jul-12 22:30N 38°16' E 007°21'612.6
2018-Jul-12 22:00N 38°18' E 007°13'4212.8
2018-Jul-12 18:43N 38°28' E 006°21'312.9
2018-Jul-12 18:30N 38°28' E 006°18'8712.8
2018-Jul-12 11:44N 38°48' E 004°29'313.0
2018-Jul-12 11:29N 38°48' E 004°25'1412.9
2018-Jul-12 10:26N 38°51' E 004°08'512.7
2018-Jul-12 10:00N 38°52' E 004°01'612.9
2018-Jul-12 09:30N 38°53' E 003°53'612.8
2018-Jul-12 09:00N 38°54' E 003°45'612.4
2018-Jul-12 08:30N 38°55' E 003°37'612.2
2018-Jul-12 08:00N 38°57' E 003°29'1612.3
2018-Jul-12 06:41N 38°60' E 003°09'212.4
2018-Jul-12 06:30N 39°00' E 003°06'612.5
2018-Jul-12 06:00N 39°01' E 002°58'912.6
2018-Jul-12 05:17N 39°03' E 002°47'412.5
2018-Jul-12 05:00N 39°04' E 002°42'812.4
2018-Jul-12 04:22N 39°05' E 002°32'12812.7
2018-Jul-11 18:15N 39°25' W 000°11'312.3
2018-Jul-11 18:00N 39°25' W 000°15'4 7.6
2018-Jul-11 17:30N 39°27' W 000°19'0 0.5
2018-Jul-11 16:58N 39°27' W 000°19'0 0.0
2018-Jul-11 16:28N 39°27' W 000°19'0 0.0
2018-Jul-11 15:58N 39°27' W 000°19'0 0.0
2018-Jul-11 15:28N 39°27' W 000°19'0 0.0
2018-Jul-11 14:58N 39°27' W 000°19'0 0.0
2018-Jul-11 14:28N 39°27' W 000°19'0 0.0
2018-Jul-11 13:58N 39°27' W 000°19'0 0.0
2018-Jul-11 13:28N 39°27' W 000°19'0 0.0
2018-Jul-11 12:58N 39°27' W 000°19'0 0.0
2018-Jul-11 12:28N 39°27' W 000°19'0 0.0
2018-Jul-11 11:58N 39°27' W 000°19'0 0.0
2018-Jul-11 11:28N 39°27' W 000°19'0 0.0
2018-Jul-11 10:58N 39°27' W 000°19'0 0.0
2018-Jul-11 10:28N 39°27' W 000°19'0 0.0
2018-Jul-11 09:58N 39°27' W 000°19'0 0.0
2018-Jul-11 09:28N 39°27' W 000°19'0 0.0
2018-Jul-11 08:58N 39°27' W 000°19'0 0.0
2018-Jul-11 08:28N 39°27' W 000°19'0 0.0
2018-Jul-11 07:58N 39°27' W 000°19'0 0.0
2018-Jul-11 07:28N 39°27' W 000°19'0 0.0
2018-Jul-11 06:58N 39°27' W 000°19'0 0.0
2018-Jul-11 06:28N 39°27' W 000°19'0 0.0
2018-Jul-11 05:58N 39°27' W 000°19'0 0.0
2018-Jul-11 05:28N 39°27' W 000°19'0 0.0
2018-Jul-11 04:58N 39°27' W 000°19'0 0.0
2018-Jul-11 04:28N 39°27' W 000°19'0 0.0
2018-Jul-11 03:58N 39°27' W 000°19'0 0.0
2018-Jul-11 03:28N 39°27' W 000°19'0 0.0
2018-Jul-11 02:58N 39°27' W 000°19'0 0.0
2018-Jul-11 02:28N 39°27' W 000°19'0 0.0
2018-Jul-11 01:58N 39°27' W 000°19'0 0.0
2018-Jul-11 01:28N 39°27' W 000°19'0 0.0
2018-Jul-11 00:58N 39°27' W 000°19'0 0.0
2018-Jul-11 00:28N 39°27' W 000°19'0 0.0
2018-Jul-10 23:58N 39°27' W 000°19'0 0.0
2018-Jul-10 23:28N 39°27' W 000°19'0 0.0
2018-Jul-10 22:58N 39°27' W 000°19'0 0.0
2018-Jul-10 22:28N 39°27' W 000°19'0 0.0
2018-Jul-10 21:25N 39°27' W 000°19'0 0.0
2018-Jul-10 20:55N 39°27' W 000°19'0 0.0
2018-Jul-10 20:28N 39°27' W 000°19'0 0.0
2018-Jul-10 19:55N 39°27' W 000°19'0 0.0
2018-Jul-10 19:25N 39°27' W 000°19'0 0.0
2018-Jul-10 18:55N 39°27' W 000°19'0 0.0
2018-Jul-10 18:28N 39°27' W 000°19'0 0.0
2018-Jul-10 17:58N 39°27' W 000°19'0 0.0
2018-Jul-10 17:28N 39°27' W 000°19'0 0.0
2018-Jul-10 16:58N 39°27' W 000°19'0 0.0
2018-Jul-10 16:28N 39°27' W 000°19'0 0.0
2018-Jul-10 15:58N 39°27' W 000°19'0 0.0
2018-Jul-10 15:28N 39°27' W 000°19'0 0.0
2018-Jul-10 14:58N 39°27' W 000°19'0 0.0
2018-Jul-10 14:28N 39°27' W 000°19'1 1.2
2018-Jul-10 14:00N 39°27' W 000°19'  

Dump ship's entire track history